Terminal Aerodrome Forecast
Issued by NWS

Home | Current Version | Previous Version | Text Only | Print | Product List | Glossary On
Versions: 1 2 3 4 5 6 7 8 9 10 11 12 13 14 15 16 17 18 19 20 21
767
FTUS45 KFGZ 301726
TAFSEZ
TAF
KSEZ 301726Z 3018/0118 18006KT P6SM SCT040 BKN060
      TEMPO 3019/3023 -SHRA OVC040
     FM010000 08008KT P6SM -SHRA BKN040 OVC060=

USA.gov is the U.S. government's official web portal to all federal, state and local government web resources and services.